sensor_id;sensor_type;location;lat;lon;timestamp;P1;durP1;ratioP1;P2;durP2;ratioP2
60060;SDS011;45933;51.336;12.612;2023-06-05T00:01:34;2.20;;;1.38;;
60060;SDS011;45933;51.336;12.612;2023-06-05T00:04:00;1.85;;;1.30;;
60060;SDS011;45933;51.336;12.612;2023-06-05T00:06:26;2.80;;;1.30;;
60060;SDS011;45933;51.336;12.612;2023-06-05T00:08:51;4.97;;;1.90;;
60060;SDS011;45933;51.336;12.612;2023-06-05T00:11:16;5.78;;;1.50;;
60060;SDS011;45933;51.336;12.612;2023-06-05T00:13:41;3.67;;;1.40;;
60060;SDS011;45933;51.336;12.612;2023-06-05T00:16:07;3.72;;;1.50;;
60060;SDS011;45933;51.336;12.612;2023-06-05T00:18:32;1.85;;;1.20;;
60060;SDS011;45933;51.336;12.612;2023-06-05T00:20:58;2.03;;;1.10;;
60060;SDS011;45933;51.336;12.612;2023-06-05T00:23:23;2.47;;;1.30;;
60060;SDS011;45933;51.336;12.612;2023-06-05T00:25:48;1.33;;;1.15;;
60060;SDS011;45933;51.336;12.612;2023-06-05T00:28:14;2.10;;;1.27;;
60060;SDS011;45933;51.336;12.612;2023-06-05T00:30:39;1.63;;;1.35;;
60060;SDS011;45933;51.336;12.612;2023-06-05T00:33:05;1.60;;;1.23;;
60060;SDS011;45933;51.336;12.612;2023-06-05T00:35:30;1.52;;;1.20;;
60060;SDS011;45933;51.336;12.612;2023-06-05T00:37:56;3.90;;;1.38;;
60060;SDS011;45933;51.336;12.612;2023-06-05T00:40:21;1.77;;;1.30;;
60060;SDS011;45933;51.336;12.612;2023-06-05T00:42:47;3.60;;;1.40;;
60060;SDS011;45933;51.336;12.612;2023-06-05T00:45:12;2.85;;;1.45;;
60060;SDS011;45933;51.336;12.612;2023-06-05T00:47:37;1.88;;;1.20;;
60060;SDS011;45933;51.336;12.612;2023-06-05T00:50:03;1.58;;;1.30;;
60060;SDS011;45933;51.336;12.612;2023-06-05T00:52:31;2.75;;;1.30;;
60060;SDS011;45933;51.336;12.612;2023-06-05T00:54:57;4.95;;;1.48;;
60060;SDS011;45933;51.336;12.612;2023-06-05T00:57:23;2.90;;;1.20;;
60060;SDS011;45933;51.336;12.612;2023-06-05T00:59:51;1.70;;;1.30;;
60060;SDS011;45933;51.336;12.612;2023-06-05T01:02:18;2.15;;;1.40;;
60060;SDS011;45933;51.336;12.612;2023-06-05T01:04:43;2.03;;;1.40;;
60060;SDS011;45933;51.336;12.612;2023-06-05T01:07:09;1.80;;;1.33;;
60060;SDS011;45933;51.336;12.612;2023-06-05T01:09:36;1.40;;;1.23;;
60060;SDS011;45933;51.336;12.612;2023-06-05T01:12:10;1.35;;;0.98;;
60060;SDS011;45933;51.336;12.612;2023-06-05T01:14:43;1.75;;;1.15;;
60060;SDS011;45933;51.336;12.612;2023-06-05T01:17:13;3.65;;;1.60;;
60060;SDS011;45933;51.336;12.612;2023-06-05T01:19:40;2.40;;;1.87;;
60060;SDS011;45933;51.336;12.612;2023-06-05T01:22:05;3.13;;;1.30;;
60060;SDS011;45933;51.336;12.612;2023-06-05T01:24:30;2.10;;;1.50;;
60060;SDS011;45933;51.336;12.612;2023-06-05T01:27:19;3.33;;;1.27;;
60060;SDS011;45933;51.336;12.612;2023-06-05T01:30:02;2.40;;;1.50;;
60060;SDS011;45933;51.336;12.612;2023-06-05T01:35:20;2.70;;;1.43;;
60060;SDS011;45933;51.336;12.612;2023-06-05T01:37:52;1.70;;;1.13;;
60060;SDS011;45933;51.336;12.612;2023-06-05T01:40:20;2.43;;;1.33;;
60060;SDS011;45933;51.336;12.612;2023-06-05T01:42:47;1.93;;;1.20;;
60060;SDS011;45933;51.336;12.612;2023-06-05T01:45:14;4.40;;;1.33;;
60060;SDS011;45933;51.336;12.612;2023-06-05T01:47:41;1.53;;;1.10;;
60060;SDS011;45933;51.336;12.612;2023-06-05T01:50:07;1.98;;;1.45;;
60060;SDS011;45933;51.336;12.612;2023-06-05T01:52:33;2.70;;;1.30;;
60060;SDS011;45933;51.336;12.612;2023-06-05T01:55:00;7.50;;;1.70;;
60060;SDS011;45933;51.336;12.612;2023-06-05T01:57:27;2.90;;;1.40;;
60060;SDS011;45933;51.336;12.612;2023-06-05T01:59:52;1.77;;;1.40;;
60060;SDS011;45933;51.336;12.612;2023-06-05T02:02:18;1.87;;;1.40;;
60060;SDS011;45933;51.336;12.612;2023-06-05T02:04:44;2.67;;;1.50;;
60060;SDS011;45933;51.336;12.612;2023-06-05T02:07:11;1.55;;;1.40;;
60060;SDS011;45933;51.336;12.612;2023-06-05T02:09:37;2.00;;;1.50;;
60060;SDS011;45933;51.336;12.612;2023-06-05T02:12:03;2.47;;;1.60;;
60060;SDS011;45933;51.336;12.612;2023-06-05T02:14:30;2.87;;;1.40;;
60060;SDS011;45933;51.336;12.612;2023-06-05T02:17:00;2.90;;;1.70;;
60060;SDS011;45933;51.336;12.612;2023-06-05T02:19:32;2.63;;;2.03;;
60060;SDS011;45933;51.336;12.612;2023-06-05T02:21:58;2.57;;;1.63;;
60060;SDS011;45933;51.336;12.612;2023-06-05T02:24:23;2.90;;;1.70;;
60060;SDS011;45933;51.336;12.612;2023-06-05T02:26:50;3.22;;;1.52;;
60060;SDS011;45933;51.336;12.612;2023-06-05T02:29:15;2.13;;;1.40;;
60060;SDS011;45933;51.336;12.612;2023-06-05T02:31:40;1.83;;;1.33;;
60060;SDS011;45933;51.336;12.612;2023-06-05T02:34:06;2.50;;;1.70;;
60060;SDS011;45933;51.336;12.612;2023-06-05T02:36:31;3.67;;;1.60;;
60060;SDS011;45933;51.336;12.612;2023-06-05T02:38:58;1.90;;;1.40;;
60060;SDS011;45933;51.336;12.612;2023-06-05T02:41:24;4.20;;;1.73;;
60060;SDS011;45933;51.336;12.612;2023-06-05T02:43:51;3.20;;;1.60;;
60060;SDS011;45933;51.336;12.612;2023-06-05T02:46:17;2.93;;;1.63;;
60060;SDS011;45933;51.336;12.612;2023-06-05T02:48:42;4.47;;;1.60;;
60060;SDS011;45933;51.336;12.612;2023-06-05T02:51:08;1.93;;;1.50;;
60060;SDS011;45933;51.336;12.612;2023-06-05T02:53:35;3.30;;;1.70;;
60060;SDS011;45933;51.336;12.612;2023-06-05T02:56:01;2.63;;;1.50;;
60060;SDS011;45933;51.336;12.612;2023-06-05T02:58:26;2.50;;;1.60;;
60060;SDS011;45933;51.336;12.612;2023-06-05T03:00:53;3.93;;;1.90;;
60060;SDS011;45933;51.336;12.612;2023-06-05T03:03:20;3.27;;;1.60;;
60060;SDS011;45933;51.336;12.612;2023-06-05T03:05:50;2.13;;;1.63;;
60060;SDS011;45933;51.336;12.612;2023-06-05T03:08:16;1.53;;;1.37;;
60060;SDS011;45933;51.336;12.612;2023-06-05T03:10:42;3.47;;;1.73;;
60060;SDS011;45933;51.336;12.612;2023-06-05T03:13:07;3.43;;;1.70;;
60060;SDS011;45933;51.336;12.612;2023-06-05T03:15:32;3.27;;;1.73;;
60060;SDS011;45933;51.336;12.612;2023-06-05T03:17:59;3.80;;;1.73;;
60060;SDS011;45933;51.336;12.612;2023-06-05T03:20:24;2.27;;;1.47;;
60060;SDS011;45933;51.336;12.612;2023-06-05T03:22:50;1.80;;;1.50;;
60060;SDS011;45933;51.336;12.612;2023-06-05T03:25:15;2.53;;;1.47;;
60060;SDS011;45933;51.336;12.612;2023-06-05T03:27:40;3.47;;;1.47;;
60060;SDS011;45933;51.336;12.612;2023-06-05T03:30:06;2.87;;;2.03;;
60060;SDS011;45933;51.336;12.612;2023-06-05T03:32:33;4.70;;;1.80;;
60060;SDS011;45933;51.336;12.612;2023-06-05T03:34:59;2.97;;;1.88;;
60060;SDS011;45933;51.336;12.612;2023-06-05T03:37:24;3.25;;;1.83;;
60060;SDS011;45933;51.336;12.612;2023-06-05T03:39:50;3.07;;;1.90;;
60060;SDS011;45933;51.336;12.612;2023-06-05T03:42:15;2.40;;;1.63;;
60060;SDS011;45933;51.336;12.612;2023-06-05T03:44:40;2.33;;;1.63;;
60060;SDS011;45933;51.336;12.612;2023-06-05T03:47:06;7.53;;;1.70;;
60060;SDS011;45933;51.336;12.612;2023-06-05T03:49:32;4.43;;;1.80;;
60060;SDS011;45933;51.336;12.612;2023-06-05T03:51:58;2.73;;;1.80;;
60060;SDS011;45933;51.336;12.612;2023-06-05T03:54:26;2.37;;;1.80;;
60060;SDS011;45933;51.336;12.612;2023-06-05T03:56:52;2.13;;;1.57;;
60060;SDS011;45933;51.336;12.612;2023-06-05T03:59:20;3.22;;;1.77;;
60060;SDS011;45933;51.336;12.612;2023-06-05T04:01:47;2.70;;;1.63;;
60060;SDS011;45933;51.336;12.612;2023-06-05T04:04:13;3.65;;;1.75;;
60060;SDS011;45933;51.336;12.612;2023-06-05T04:06:39;6.27;;;1.73;;
60060;SDS011;45933;51.336;12.612;2023-06-05T04:09:05;2.50;;;1.90;;
60060;SDS011;45933;51.336;12.612;2023-06-05T04:11:40;2.73;;;1.80;;
60060;SDS011;45933;51.336;12.612;2023-06-05T04:14:07;3.08;;;1.98;;
60060;SDS011;45933;51.336;12.612;2023-06-05T04:16:33;3.28;;;1.80;;
60060;SDS011;45933;51.336;12.612;2023-06-05T04:18:59;2.58;;;1.67;;
60060;SDS011;45933;51.336;12.612;2023-06-05T04:21:25;3.10;;;1.60;;
60060;SDS011;45933;51.336;12.612;2023-06-05T04:23:50;7.25;;;1.88;;
60060;SDS011;45933;51.336;12.612;2023-06-05T04:26:16;4.60;;;2.20;;
60060;SDS011;45933;51.336;12.612;2023-06-05T04:28:42;3.70;;;1.80;;
60060;SDS011;45933;51.336;12.612;2023-06-05T04:31:08;3.97;;;1.77;;
60060;SDS011;45933;51.336;12.612;2023-06-05T04:33:33;4.30;;;1.55;;
60060;SDS011;45933;51.336;12.612;2023-06-05T04:35:59;3.80;;;1.70;;
60060;SDS011;45933;51.336;12.612;2023-06-05T04:38:24;2.80;;;1.48;;
60060;SDS011;45933;51.336;12.612;2023-06-05T04:40:49;4.38;;;1.80;;
60060;SDS011;45933;51.336;12.612;2023-06-05T04:43:15;5.17;;;1.70;;
60060;SDS011;45933;51.336;12.612;2023-06-05T04:45:40;4.38;;;1.83;;
60060;SDS011;45933;51.336;12.612;2023-06-05T04:48:09;2.73;;;1.87;;
60060;SDS011;45933;51.336;12.612;2023-06-05T04:50:34;3.03;;;1.67;;
60060;SDS011;45933;51.336;12.612;2023-06-05T04:53:01;6.90;;;2.20;;
60060;SDS011;45933;51.336;12.612;2023-06-05T04:55:26;6.05;;;2.00;;
60060;SDS011;45933;51.336;12.612;2023-06-05T04:57:51;4.15;;;1.80;;
60060;SDS011;45933;51.336;12.612;2023-06-05T05:00:18;3.45;;;2.13;;
60060;SDS011;45933;51.336;12.612;2023-06-05T05:02:44;3.58;;;1.83;;
60060;SDS011;45933;51.336;12.612;2023-06-05T05:05:09;4.25;;;2.05;;
60060;SDS011;45933;51.336;12.612;2023-06-05T05:07:38;3.67;;;1.85;;
60060;SDS011;45933;51.336;12.612;2023-06-05T05:10:07;3.92;;;1.75;;
60060;SDS011;45933;51.336;12.612;2023-06-05T05:12:33;5.65;;;2.03;;
60060;SDS011;45933;51.336;12.612;2023-06-05T05:14:59;5.90;;;2.10;;
60060;SDS011;45933;51.336;12.612;2023-06-05T05:17:24;3.25;;;1.92;;
60060;SDS011;45933;51.336;12.612;2023-06-05T05:19:50;9.50;;;1.92;;
60060;SDS011;45933;51.336;12.612;2023-06-05T05:22:16;5.25;;;2.03;;
60060;SDS011;45933;51.336;12.612;2023-06-05T05:24:42;4.60;;;2.35;;
60060;SDS011;45933;51.336;12.612;2023-06-05T05:27:07;4.53;;;1.98;;
60060;SDS011;45933;51.336;12.612;2023-06-05T05:29:33;4.03;;;1.70;;
60060;SDS011;45933;51.336;12.612;2023-06-05T05:31:58;4.47;;;1.98;;
60060;SDS011;45933;51.336;12.612;2023-06-05T05:34:23;4.00;;;1.90;;
60060;SDS011;45933;51.336;12.612;2023-06-05T05:36:49;2.67;;;2.03;;
60060;SDS011;45933;51.336;12.612;2023-06-05T05:39:14;2.30;;;1.60;;
60060;SDS011;45933;51.336;12.612;2023-06-05T05:41:40;3.28;;;2.13;;
60060;SDS011;45933;51.336;12.612;2023-06-05T05:44:06;2.50;;;1.80;;
60060;SDS011;45933;51.336;12.612;2023-06-05T05:46:31;5.07;;;2.00;;
60060;SDS011;45933;51.336;12.612;2023-06-05T05:48:57;3.00;;;1.88;;
60060;SDS011;45933;51.336;12.612;2023-06-05T05:51:22;4.75;;;1.85;;
60060;SDS011;45933;51.336;12.612;2023-06-05T05:53:48;3.15;;;1.80;;
60060;SDS011;45933;51.336;12.612;2023-06-05T05:56:14;4.10;;;2.03;;
60060;SDS011;45933;51.336;12.612;2023-06-05T05:58:39;4.25;;;1.70;;
60060;SDS011;45933;51.336;12.612;2023-06-05T06:01:05;4.97;;;1.98;;
60060;SDS011;45933;51.336;12.612;2023-06-05T06:03:31;5.78;;;1.60;;
60060;SDS011;45933;51.336;12.612;2023-06-05T06:05:58;2.75;;;2.05;;
60060;SDS011;45933;51.336;12.612;2023-06-05T06:08:23;5.43;;;1.88;;
60060;SDS011;45933;51.336;12.612;2023-06-05T06:10:49;5.10;;;2.03;;
60060;SDS011;45933;51.336;12.612;2023-06-05T06:13:15;4.47;;;2.22;;
60060;SDS011;45933;51.336;12.612;2023-06-05T06:15:40;3.80;;;2.03;;
60060;SDS011;45933;51.336;12.612;2023-06-05T06:18:06;2.58;;;1.75;;
60060;SDS011;45933;51.336;12.612;2023-06-05T06:20:31;4.25;;;1.83;;
60060;SDS011;45933;51.336;12.612;2023-06-05T06:22:58;3.47;;;2.08;;
60060;SDS011;45933;51.336;12.612;2023-06-05T06:25:24;4.25;;;2.38;;
60060;SDS011;45933;51.336;12.612;2023-06-05T06:27:53;3.47;;;2.28;;
60060;SDS011;45933;51.336;12.612;2023-06-05T06:30:19;3.60;;;2.40;;
60060;SDS011;45933;51.336;12.612;2023-06-05T06:32:45;4.38;;;2.22;;
60060;SDS011;45933;51.336;12.612;2023-06-05T06:35:10;2.83;;;1.98;;
60060;SDS011;45933;51.336;12.612;2023-06-05T06:37:38;2.90;;;2.20;;
60060;SDS011;45933;51.336;12.612;2023-06-05T06:40:05;2.50;;;1.73;;
60060;SDS011;45933;51.336;12.612;2023-06-05T06:42:36;4.72;;;2.00;;
60060;SDS011;45933;51.336;12.612;2023-06-05T06:45:02;3.83;;;2.20;;
60060;SDS011;45933;51.336;12.612;2023-06-05T06:47:29;3.88;;;1.95;;
60060;SDS011;45933;51.336;12.612;2023-06-05T06:49:55;2.63;;;1.73;;
60060;SDS011;45933;51.336;12.612;2023-06-05T06:52:21;3.00;;;2.00;;
60060;SDS011;45933;51.336;12.612;2023-06-05T06:54:47;4.47;;;2.20;;
60060;SDS011;45933;51.336;12.612;2023-06-05T06:57:12;5.13;;;2.13;;
60060;SDS011;45933;51.336;12.612;2023-06-05T06:59:38;4.47;;;2.03;;
60060;SDS011;45933;51.336;12.612;2023-06-05T07:02:09;4.80;;;1.90;;
60060;SDS011;45933;51.336;12.612;2023-06-05T07:04:39;5.75;;;2.42;;
60060;SDS011;45933;51.336;12.612;2023-06-05T07:07:11;3.72;;;1.85;;
60060;SDS011;45933;51.336;12.612;2023-06-05T07:09:39;4.78;;;2.00;;
60060;SDS011;45933;51.336;12.612;2023-06-05T07:12:07;2.45;;;1.75;;
60060;SDS011;45933;51.336;12.612;2023-06-05T07:14:33;2.42;;;1.65;;
60060;SDS011;45933;51.336;12.612;2023-06-05T07:16:58;6.30;;;2.22;;
60060;SDS011;45933;51.336;12.612;2023-06-05T07:19:25;6.63;;;1.95;;
60060;SDS011;45933;51.336;12.612;2023-06-05T07:21:52;3.10;;;1.80;;
60060;SDS011;45933;51.336;12.612;2023-06-05T07:24:17;3.10;;;1.80;;
60060;SDS011;45933;51.336;12.612;2023-06-05T07:26:43;3.83;;;1.90;;
60060;SDS011;45933;51.336;12.612;2023-06-05T07:29:09;4.13;;;1.85;;
60060;SDS011;45933;51.336;12.612;2023-06-05T07:31:35;8.70;;;1.98;;
60060;SDS011;45933;51.336;12.612;2023-06-05T07:34:01;5.35;;;1.98;;
60060;SDS011;45933;51.336;12.612;2023-06-05T07:36:27;3.58;;;1.60;;
60060;SDS011;45933;51.336;12.612;2023-06-05T07:38:52;6.13;;;1.92;;
60060;SDS011;45933;51.336;12.612;2023-06-05T07:41:17;3.13;;;1.73;;
60060;SDS011;45933;51.336;12.612;2023-06-05T07:43:43;9.50;;;2.08;;
60060;SDS011;45933;51.336;12.612;2023-06-05T07:46:08;3.50;;;1.70;;
60060;SDS011;45933;51.336;12.612;2023-06-05T07:48:36;2.50;;;1.63;;
60060;SDS011;45933;51.336;12.612;2023-06-05T07:51:02;10.70;;;2.72;;
60060;SDS011;45933;51.336;12.612;2023-06-05T07:53:28;2.67;;;1.70;;
60060;SDS011;45933;51.336;12.612;2023-06-05T07:55:53;5.45;;;1.90;;
60060;SDS011;45933;51.336;12.612;2023-06-05T07:58:19;3.65;;;1.88;;
60060;SDS011;45933;51.336;12.612;2023-06-05T08:00:46;7.30;;;1.85;;
60060;SDS011;45933;51.336;12.612;2023-06-05T08:03:15;7.15;;;1.70;;
60060;SDS011;45933;51.336;12.612;2023-06-05T08:05:50;5.25;;;2.00;;
60060;SDS011;45933;51.336;12.612;2023-06-05T08:08:16;3.88;;;2.00;;
60060;SDS011;45933;51.336;12.612;2023-06-05T08:10:41;6.30;;;1.95;;
60060;SDS011;45933;51.336;12.612;2023-06-05T08:13:07;6.55;;;1.80;;
60060;SDS011;45933;51.336;12.612;2023-06-05T08:15:33;3.40;;;1.95;;
60060;SDS011;45933;51.336;12.612;2023-06-05T08:17:58;1.95;;;1.77;;
60060;SDS011;45933;51.336;12.612;2023-06-05T08:20:24;2.13;;;1.63;;
60060;SDS011;45933;51.336;12.612;2023-06-05T08:22:49;3.03;;;1.60;;
60060;SDS011;45933;51.336;12.612;2023-06-05T08:25:14;6.07;;;1.70;;
60060;SDS011;45933;51.336;12.612;2023-06-05T08:27:40;5.55;;;1.60;;
60060;SDS011;45933;51.336;12.612;2023-06-05T08:30:05;4.95;;;1.70;;
60060;SDS011;45933;51.336;12.612;2023-06-05T08:32:31;4.78;;;1.63;;
60060;SDS011;45933;51.336;12.612;2023-06-05T08:34:57;3.70;;;1.70;;
60060;SDS011;45933;51.336;12.612;2023-06-05T08:37:23;4.20;;;1.58;;
60060;SDS011;45933;51.336;12.612;2023-06-05T08:39:48;2.75;;;1.50;;
60060;SDS011;45933;51.336;12.612;2023-06-05T08:42:13;2.47;;;1.67;;
60060;SDS011;45933;51.336;12.612;2023-06-05T08:44:40;2.38;;;1.52;;
60060;SDS011;45933;51.336;12.612;2023-06-05T08:47:05;2.45;;;1.52;;
60060;SDS011;45933;51.336;12.612;2023-06-05T08:49:33;1.75;;;1.30;;
60060;SDS011;45933;51.336;12.612;2023-06-05T08:52:03;4.18;;;1.70;;
60060;SDS011;45933;51.336;12.612;2023-06-05T08:54:36;3.70;;;1.80;;
60060;SDS011;45933;51.336;12.612;2023-06-05T08:57:03;7.53;;;2.70;;
60060;SDS011;45933;51.336;12.612;2023-06-05T08:59:30;5.47;;;2.03;;
60060;SDS011;45933;51.336;12.612;2023-06-05T09:01:56;4.57;;;1.95;;
60060;SDS011;45933;51.336;12.612;2023-06-05T09:04:22;2.35;;;1.73;;
60060;SDS011;45933;51.336;12.612;2023-06-05T09:06:49;9.43;;;1.85;;
60060;SDS011;45933;51.336;12.612;2023-06-05T09:09:18;2.53;;;1.65;;
60060;SDS011;45933;51.336;12.612;2023-06-05T09:11:43;4.38;;;1.80;;
60060;SDS011;45933;51.336;12.612;2023-06-05T09:14:09;3.63;;;1.35;;
60060;SDS011;45933;51.336;12.612;2023-06-05T09:16:39;2.97;;;1.30;;
60060;SDS011;45933;51.336;12.612;2023-06-05T09:19:07;3.20;;;1.40;;
60060;SDS011;45933;51.336;12.612;2023-06-05T09:21:33;2.40;;;1.40;;
60060;SDS011;45933;51.336;12.612;2023-06-05T09:26:44;4.15;;;1.60;;
60060;SDS011;45933;51.336;12.612;2023-06-05T09:29:22;2.35;;;1.90;;
60060;SDS011;45933;51.336;12.612;2023-06-05T09:31:49;2.80;;;1.50;;
60060;SDS011;45933;51.336;12.612;2023-06-05T09:34:22;2.22;;;1.48;;
60060;SDS011;45933;51.336;12.612;2023-06-05T09:36:48;1.23;;;1.13;;
60060;SDS011;45933;51.336;12.612;2023-06-05T09:39:17;17.95;;;2.70;;
60060;SDS011;45933;51.336;12.612;2023-06-05T09:41:45;2.25;;;1.50;;
60060;SDS011;45933;51.336;12.612;2023-06-05T09:44:13;8.70;;;1.73;;
60060;SDS011;45933;51.336;12.612;2023-06-05T09:46:59;3.33;;;1.95;;
60060;SDS011;45933;51.336;12.612;2023-06-05T09:49:28;4.45;;;1.58;;
60060;SDS011;45933;51.336;12.612;2023-06-05T09:51:58;4.43;;;2.15;;
60060;SDS011;45933;51.336;12.612;2023-06-05T09:54:25;2.72;;;2.20;;
60060;SDS011;45933;51.336;12.612;2023-06-05T09:56:53;2.22;;;1.70;;
60060;SDS011;45933;51.336;12.612;2023-06-05T09:59:22;3.17;;;1.92;;
60060;SDS011;45933;51.336;12.612;2023-06-05T10:01:48;3.63;;;1.98;;
60060;SDS011;45933;51.336;12.612;2023-06-05T10:04:16;2.90;;;1.70;;
60060;SDS011;45933;51.336;12.612;2023-06-05T10:06:45;2.80;;;1.77;;
60060;SDS011;45933;51.336;12.612;2023-06-05T10:09:13;3.58;;;1.83;;
60060;SDS011;45933;51.336;12.612;2023-06-05T10:11:39;2.83;;;1.60;;
60060;SDS011;45933;51.336;12.612;2023-06-05T10:14:06;8.10;;;2.08;;
60060;SDS011;45933;51.336;12.612;2023-06-05T10:16:33;3.05;;;1.92;;
60060;SDS011;45933;51.336;12.612;2023-06-05T10:18:59;2.58;;;1.83;;
60060;SDS011;45933;51.336;12.612;2023-06-05T10:21:24;4.82;;;1.98;;
60060;SDS011;45933;51.336;12.612;2023-06-05T10:24:01;2.28;;;1.73;;
60060;SDS011;45933;51.336;12.612;2023-06-05T10:26:42;4.50;;;1.98;;
60060;SDS011;45933;51.336;12.612;2023-06-05T10:32:44;2.25;;;1.70;;
60060;SDS011;45933;51.336;12.612;2023-06-05T10:36:20;1.70;;;1.60;;
60060;SDS011;45933;51.336;12.612;2023-06-05T10:38:31;4.72;;;1.90;;
60060;SDS011;45933;51.336;12.612;2023-06-05T10:40:58;3.10;;;1.70;;
60060;SDS011;45933;51.336;12.612;2023-06-05T10:43:47;2.10;;;1.75;;
60060;SDS011;45933;51.336;12.612;2023-06-05T10:51:49;8.70;;;1.83;;
60060;SDS011;45933;51.336;12.612;2023-06-05T10:56:59;3.03;;;2.10;;
60060;SDS011;45933;51.336;12.612;2023-06-05T11:05:04;2.30;;;1.90;;
60060;SDS011;45933;51.336;12.612;2023-06-05T11:07:23;2.80;;;1.90;;
60060;SDS011;45933;51.336;12.612;2023-06-05T11:15:08;4.10;;;2.10;;
60060;SDS011;45933;51.336;12.612;2023-06-05T11:17:35;3.60;;;2.03;;
60060;SDS011;45933;51.336;12.612;2023-06-05T11:20:05;3.55;;;2.22;;
60060;SDS011;45933;51.336;12.612;2023-06-05T11:22:54;4.47;;;2.00;;
60060;SDS011;45933;51.336;12.612;2023-06-05T11:30:26;4.25;;;1.80;;
60060;SDS011;45933;51.336;12.612;2023-06-05T11:32:57;4.43;;;2.40;;
60060;SDS011;45933;51.336;12.612;2023-06-05T11:35:30;4.65;;;2.38;;
60060;SDS011;45933;51.336;12.612;2023-06-05T11:38:13;2.20;;;2.00;;
60060;SDS011;45933;51.336;12.612;2023-06-05T11:40:40;2.92;;;2.25;;
60060;SDS011;45933;51.336;12.612;2023-06-05T11:43:07;3.90;;;2.13;;
60060;SDS011;45933;51.336;12.612;2023-06-05T11:45:34;3.90;;;2.35;;
60060;SDS011;45933;51.336;12.612;2023-06-05T11:48:07;3.00;;;2.53;;
60060;SDS011;45933;51.336;12.612;2023-06-05T11:50:37;3.53;;;2.30;;
60060;SDS011;45933;51.336;12.612;2023-06-05T11:53:10;3.97;;;2.40;;
60060;SDS011;45933;51.336;12.612;2023-06-05T11:55:36;3.40;;;2.78;;
60060;SDS011;45933;51.336;12.612;2023-06-05T11:58:32;4.15;;;2.50;;
60060;SDS011;45933;51.336;12.612;2023-06-05T12:03:31;3.13;;;2.58;;
60060;SDS011;45933;51.336;12.612;2023-06-05T12:05:57;2.70;;;2.50;;
60060;SDS011;45933;51.336;12.612;2023-06-05T12:08:26;3.17;;;2.42;;
60060;SDS011;45933;51.336;12.612;2023-06-05T12:10:55;5.80;;;2.70;;
60060;SDS011;45933;51.336;12.612;2023-06-05T12:16:15;5.63;;;2.92;;
60060;SDS011;45933;51.336;12.612;2023-06-05T12:18:42;2.60;;;2.40;;
60060;SDS011;45933;51.336;12.612;2023-06-05T12:21:18;2.75;;;2.30;;
60060;SDS011;45933;51.336;12.612;2023-06-05T12:23:44;3.42;;;2.40;;
60060;SDS011;45933;51.336;12.612;2023-06-05T12:26:10;2.58;;;2.38;;
60060;SDS011;45933;51.336;12.612;2023-06-05T12:28:36;3.50;;;2.58;;
60060;SDS011;45933;51.336;12.612;2023-06-05T12:31:02;4.20;;;2.33;;
60060;SDS011;45933;51.336;12.612;2023-06-05T12:33:27;2.72;;;2.03;;
60060;SDS011;45933;51.336;12.612;2023-06-05T12:36:03;6.00;;;2.38;;
60060;SDS011;45933;51.336;12.612;2023-06-05T12:38:30;2.75;;;2.50;;
60060;SDS011;45933;51.336;12.612;2023-06-05T12:40:55;10.45;;;3.28;;
60060;SDS011;45933;51.336;12.612;2023-06-05T12:43:22;4.40;;;2.75;;
60060;SDS011;45933;51.336;12.612;2023-06-05T12:45:47;2.80;;;2.47;;
60060;SDS011;45933;51.336;12.612;2023-06-05T12:48:14;7.97;;;3.00;;
60060;SDS011;45933;51.336;12.612;2023-06-05T12:50:40;4.88;;;2.95;;
60060;SDS011;45933;51.336;12.612;2023-06-05T12:53:06;3.65;;;2.80;;
60060;SDS011;45933;51.336;12.612;2023-06-05T12:55:32;3.72;;;2.75;;
60060;SDS011;45933;51.336;12.612;2023-06-05T12:57:57;4.22;;;2.55;;
60060;SDS011;45933;51.336;12.612;2023-06-05T13:00:22;4.20;;;2.92;;
60060;SDS011;45933;51.336;12.612;2023-06-05T13:02:48;5.65;;;2.53;;
60060;SDS011;45933;51.336;12.612;2023-06-05T13:05:13;4.03;;;2.72;;
60060;SDS011;45933;51.336;12.612;2023-06-05T13:07:39;3.70;;;3.13;;
60060;SDS011;45933;51.336;12.612;2023-06-05T13:10:05;3.10;;;2.70;;
60060;SDS011;45933;51.336;12.612;2023-06-05T13:12:31;4.47;;;2.50;;
60060;SDS011;45933;51.336;12.612;2023-06-05T13:14:56;4.53;;;2.50;;
60060;SDS011;45933;51.336;12.612;2023-06-05T13:17:22;3.15;;;2.70;;
60060;SDS011;45933;51.336;12.612;2023-06-05T13:19:48;3.42;;;3.13;;
60060;SDS011;45933;51.336;12.612;2023-06-05T13:22:14;3.60;;;2.42;;
60060;SDS011;45933;51.336;12.612;2023-06-05T13:24:40;3.15;;;2.83;;
60060;SDS011;45933;51.336;12.612;2023-06-05T13:27:05;4.53;;;2.60;;
60060;SDS011;45933;51.336;12.612;2023-06-05T13:29:31;4.85;;;3.00;;
60060;SDS011;45933;51.336;12.612;2023-06-05T13:31:56;3.33;;;2.60;;
60060;SDS011;45933;51.336;12.612;2023-06-05T13:34:21;3.88;;;2.70;;
60060;SDS011;45933;51.336;12.612;2023-06-05T13:36:46;3.90;;;2.60;;
60060;SDS011;45933;51.336;12.612;2023-06-05T13:39:12;7.25;;;3.15;;
60060;SDS011;45933;51.336;12.612;2023-06-05T13:41:37;4.10;;;2.88;;
60060;SDS011;45933;51.336;12.612;2023-06-05T13:44:02;3.15;;;2.88;;
60060;SDS011;45933;51.336;12.612;2023-06-05T13:46:27;4.10;;;2.42;;
60060;SDS011;45933;51.336;12.612;2023-06-05T13:48:53;2.80;;;2.47;;
60060;SDS011;45933;51.336;12.612;2023-06-05T13:51:19;3.70;;;2.67;;
60060;SDS011;45933;51.336;12.612;2023-06-05T13:53:44;3.83;;;2.80;;
60060;SDS011;45933;51.336;12.612;2023-06-05T13:56:10;4.57;;;2.58;;
60060;SDS011;45933;51.336;12.612;2023-06-05T13:58:35;6.03;;;2.78;;
60060;SDS011;45933;51.336;12.612;2023-06-05T14:01:01;3.28;;;2.70;;
60060;SDS011;45933;51.336;12.612;2023-06-05T14:03:26;3.47;;;2.72;;
60060;SDS011;45933;51.336;12.612;2023-06-05T14:05:52;3.03;;;2.72;;
60060;SDS011;45933;51.336;12.612;2023-06-05T14:08:17;6.70;;;2.50;;
60060;SDS011;45933;51.336;12.612;2023-06-05T14:10:44;6.05;;;2.88;;
60060;SDS011;45933;51.336;12.612;2023-06-05T14:13:09;3.47;;;2.60;;
60060;SDS011;45933;51.336;12.612;2023-06-05T14:15:34;4.00;;;2.72;;
60060;SDS011;45933;51.336;12.612;2023-06-05T14:18:04;3.35;;;2.75;;
60060;SDS011;45933;51.336;12.612;2023-06-05T14:20:30;4.10;;;2.60;;
60060;SDS011;45933;51.336;12.612;2023-06-05T14:22:56;6.25;;;2.70;;
60060;SDS011;45933;51.336;12.612;2023-06-05T14:25:22;2.75;;;2.50;;
60060;SDS011;45933;51.336;12.612;2023-06-05T14:27:49;5.32;;;2.55;;
60060;SDS011;45933;51.336;12.612;2023-06-05T14:30:14;3.35;;;2.65;;
60060;SDS011;45933;51.336;12.612;2023-06-05T14:32:40;4.43;;;2.97;;
60060;SDS011;45933;51.336;12.612;2023-06-05T14:35:06;3.83;;;2.55;;
60060;SDS011;45933;51.336;12.612;2023-06-05T14:37:32;3.15;;;2.55;;
60060;SDS011;45933;51.336;12.612;2023-06-05T14:39:57;16.27;;;3.13;;
60060;SDS011;45933;51.336;12.612;2023-06-05T14:42:23;3.35;;;2.83;;
60060;SDS011;45933;51.336;12.612;2023-06-05T14:44:48;3.47;;;2.63;;
60060;SDS011;45933;51.336;12.612;2023-06-05T14:47:14;5.65;;;3.10;;
60060;SDS011;45933;51.336;12.612;2023-06-05T14:49:39;2.92;;;2.50;;
60060;SDS011;45933;51.336;12.612;2023-06-05T14:52:05;5.18;;;2.40;;
60060;SDS011;45933;51.336;12.612;2023-06-05T14:54:30;6.75;;;3.17;;
60060;SDS011;45933;51.336;12.612;2023-06-05T14:56:55;3.42;;;2.47;;
60060;SDS011;45933;51.336;12.612;2023-06-05T14:59:21;6.15;;;2.90;;
60060;SDS011;45933;51.336;12.612;2023-06-05T15:01:46;3.90;;;2.50;;
60060;SDS011;45933;51.336;12.612;2023-06-05T15:04:11;3.65;;;2.63;;
60060;SDS011;45933;51.336;12.612;2023-06-05T15:06:36;5.18;;;2.38;;
60060;SDS011;45933;51.336;12.612;2023-06-05T15:09:02;4.85;;;2.30;;
60060;SDS011;45933;51.336;12.612;2023-06-05T15:11:28;2.40;;;2.20;;